createdAt,value
2023-01-17T00:00:49.844Z,97706.78
2023-01-17T00:02:53.560Z,97712.25
2023-01-17T00:04:55.175Z,97711.66
2023-01-17T00:06:56.731Z,97719.72
2023-01-17T00:08:59.694Z,97717.50
2023-01-17T00:11:01.259Z,97724.56
2023-01-17T00:13:03.317Z,97724.66
2023-01-17T00:15:06.338Z,97737.25
2023-01-17T00:17:08.024Z,97733.13
2023-01-17T00:19:09.724Z,97731.03
2023-01-17T00:21:11.285Z,97735.00
2023-01-17T00:23:16.289Z,97740.25
2023-01-17T00:25:21.119Z,97742.91
2023-01-17T00:27:23.182Z,97743.84
2023-01-17T00:29:26.785Z,97743.50
2023-01-17T00:31:28.328Z,97748.28
2023-01-17T00:33:30.215Z,97752.41
2023-01-17T00:35:32.779Z,97749.13
2023-01-17T00:37:34.409Z,97751.53
2023-01-17T00:39:35.893Z,97755.47
2023-01-17T00:41:38.789Z,97750.75
2023-01-17T00:43:40.761Z,97755.59
2023-01-17T00:45:43.982Z,97771.44
2023-01-17T00:47:49.748Z,97761.34
2023-01-17T00:49:51.303Z,97771.47
2023-01-17T00:51:53.339Z,97770.41
2023-01-17T00:53:54.962Z,97778.78
2023-01-17T00:56:00.615Z,97790.00
2023-01-17T00:58:06.907Z,97787.59
2023-01-17T01:00:09.529Z,97790.47
2023-01-17T01:02:11.318Z,97797.22
2023-01-17T01:04:12.823Z,97791.69
2023-01-17T01:06:14.328Z,97810.00
2023-01-17T01:08:20.305Z,97807.19
2023-01-17T01:10:21.871Z,97802.72
2023-01-17T01:12:23.437Z,97817.38
2023-01-17T01:14:26.348Z,97813.44
2023-01-17T01:16:28.042Z,97810.47
2023-01-17T01:18:29.695Z,97818.31
2023-01-17T01:20:31.177Z,97819.59
2023-01-17T01:22:32.653Z,97823.25
2023-01-17T01:24:34.288Z,97829.06
2023-01-17T01:26:36.194Z,97828.75
2023-01-17T01:28:37.784Z,97822.47
2023-01-17T01:30:40.744Z,97831.78
2023-01-17T01:32:42.438Z,97831.75
2023-01-17T01:34:43.983Z,97831.44
2023-01-17T01:36:45.570Z,97831.13
2023-01-17T01:38:47.097Z,97838.34
2023-01-17T01:40:50.693Z,97837.88
2023-01-17T01:42:54.097Z,97840.25
2023-01-17T01:44:56.150Z,97847.50
2023-01-17T01:46:59.084Z,97850.19
2023-01-17T01:49:04.533Z,97846.72
2023-01-17T01:51:09.614Z,97849.88
2023-01-17T01:53:14.463Z,97851.94
2023-01-17T01:55:19.014Z,97858.88
2023-01-17T01:57:23.981Z,97859.16
2023-01-17T01:59:26.033Z,97856.81
2023-01-17T02:01:29.330Z,97861.22
2023-01-17T02:03:33.338Z,97858.41
2023-01-17T02:05:35.440Z,97852.72
2023-01-17T02:07:43.302Z,97854.50
2023-01-17T02:09:45.637Z,97852.59
2023-01-17T02:11:48.869Z,97851.81
2023-01-17T02:13:50.426Z,97854.97
2023-01-17T02:16:01.598Z,97848.19
2023-01-17T02:18:11.444Z,97844.41
2023-01-17T02:20:42.433Z,97850.88
2023-01-17T02:23:20.186Z,97848.53
2023-01-17T02:25:43.770Z,97853.75
2023-01-17T02:28:03.013Z,97854.84
2023-01-17T02:30:27.385Z,97850.91
2023-01-17T02:32:39.945Z,97853.13
2023-01-17T02:34:47.253Z,97854.84
2023-01-17T02:36:55.740Z,97858.56
2023-01-17T02:39:05.951Z,97854.19
2023-01-17T02:41:13.625Z,97859.06
2023-01-17T02:43:18.349Z,97856.06
2023-01-17T02:45:21.880Z,97850.38
2023-01-17T02:47:25.552Z,97851.78
2023-01-17T02:49:30.344Z,97848.94
2023-01-17T02:51:51.203Z,97850.97
2023-01-17T02:54:07.715Z,97862.66
2023-01-17T02:56:19.580Z,97858.41
2023-01-17T02:58:45.955Z,97854.78
2023-01-17T03:01:02.592Z,97859.50
2023-01-17T03:03:14.140Z,97866.94
2023-01-17T03:05:20.526Z,97860.47
2023-01-17T03:07:25.826Z,97871.53
2023-01-17T03:09:29.980Z,97866.81
2023-01-17T03:11:31.523Z,97865.09
2023-01-17T03:13:33.206Z,97870.59
2023-01-17T03:15:34.750Z,97875.00
2023-01-17T03:17:40.898Z,97873.59
2023-01-17T03:19:42.549Z,97878.47
2023-01-17T03:21:44.172Z,97880.03
2023-01-17T03:23:45.823Z,97884.94
2023-01-17T03:25:47.396Z,97881.47
2023-01-17T03:27:48.916Z,97882.44
2023-01-17T03:29:50.474Z,97889.97
2023-01-17T03:31:52.026Z,97895.97
2023-01-17T03:33:54.990Z,97903.22
2023-01-17T03:35:56.735Z,97894.72
2023-01-17T03:37:58.424Z,97892.19
2023-01-17T03:39:59.987Z,97883.53
2023-01-17T03:42:01.591Z,97898.16
2023-01-17T03:44:03.128Z,97905.75
2023-01-17T03:46:06.597Z,97902.41
2023-01-17T03:48:08.233Z,97899.28
2023-01-17T03:50:12.691Z,97897.06
2023-01-17T03:52:14.287Z,97898.31
2023-01-17T03:54:15.885Z,97892.66
2023-01-17T03:56:17.856Z,97900.53
2023-01-17T03:58:19.609Z,97908.59
2023-01-17T04:00:21.549Z,97913.13
2023-01-17T04:02:23.144Z,97925.56
2023-01-17T04:04:24.615Z,97928.09
2023-01-17T04:06:27.534Z,97923.53
2023-01-17T04:08:29.525Z,97918.31
2023-01-17T04:10:31.003Z,97916.13
2023-01-17T04:12:32.562Z,97912.03
2023-01-17T04:14:34.122Z,97907.47
2023-01-17T04:16:37.897Z,97902.28
2023-01-17T04:18:39.747Z,97908.59
2023-01-17T04:20:41.356Z,97903.38
2023-01-17T04:22:44.210Z,97898.66
2023-01-17T04:24:45.744Z,97900.06
2023-01-17T04:26:47.419Z,97901.00
2023-01-17T04:28:49.247Z,97906.81
2023-01-17T04:30:50.835Z,97900.69
2023-01-17T04:32:52.563Z,97903.84
2023-01-17T04:34:54.193Z,97902.41
2023-01-17T04:36:55.736Z,97902.28
2023-01-17T04:38:58.698Z,97902.91
2023-01-17T04:41:00.200Z,97904.94
2023-01-17T04:43:01.804Z,97913.28
2023-01-17T04:45:03.453Z,97906.81
2023-01-17T04:47:08.014Z,97905.44
2023-01-17T04:49:09.519Z,97907.94
2023-01-17T04:51:11.079Z,97902.41
2023-01-17T04:53:12.588Z,97905.44
2023-01-17T04:55:15.586Z,97892.81
2023-01-17T04:57:17.740Z,97892.81
2023-01-17T04:59:19.257Z,97887.16
2023-01-17T05:01:20.849Z,97907.00
2023-01-17T05:03:23.033Z,97907.00
2023-01-17T05:05:24.653Z,97898.78
2023-01-17T05:07:26.194Z,97911.56
2023-01-17T05:09:27.740Z,97913.59
2023-01-17T05:11:30.645Z,97905.25
2023-01-17T05:13:32.342Z,97913.59
2023-01-17T05:15:33.858Z,97912.81
2023-01-17T05:17:35.470Z,97914.69
2023-01-17T05:19:37.249Z,97917.09
2023-01-17T05:21:38.764Z,97914.69
2023-01-17T05:23:40.302Z,97918.47
2023-01-17T05:25:41.863Z,97918.19
2023-01-17T05:27:44.727Z,97918.66
2023-01-17T05:29:46.239Z,97912.66
2023-01-17T05:31:47.774Z,97922.75
2023-01-17T05:33:49.259Z,97911.56
2023-01-17T05:35:50.816Z,97919.91
2023-01-17T05:37:53.158Z,97928.41
2023-01-17T05:39:54.710Z,97925.44
2023-01-17T05:41:56.418Z,97920.69
2023-01-17T05:43:59.335Z,97915.81
2023-01-17T05:46:00.916Z,97913.28
2023-01-17T05:48:03.530Z,97920.53
2023-01-17T05:50:05.674Z,97922.75
2023-01-17T05:52:07.305Z,97920.53
2023-01-17T05:54:08.831Z,97920.88
2023-01-17T05:56:10.431Z,97918.19
2023-01-17T05:58:15.283Z,97907.63
2023-01-17T06:00:19.060Z,97911.72
2023-01-17T06:02:20.632Z,97902.28
2023-01-17T06:04:22.203Z,97906.34
2023-01-17T06:06:23.766Z,97904.00
2023-01-17T06:08:25.437Z,97906.34
2023-01-17T06:10:27.657Z,97910.94
2023-01-17T06:12:29.373Z,97898.66
2023-01-17T06:14:30.961Z,97901.00
2023-01-17T06:16:33.840Z,97896.91
2023-01-17T06:18:35.421Z,97888.88
2023-01-17T06:20:37.336Z,97893.28
2023-01-17T06:22:39.054Z,97886.50
2023-01-17T06:24:40.623Z,97884.63
2023-01-17T06:26:43.473Z,97887.31
2023-01-17T06:28:45.020Z,97888.09
2023-01-17T06:30:47.418Z,97883.06
2023-01-17T06:32:53.721Z,97886.66
2023-01-17T06:34:55.286Z,97891.72
2023-01-17T06:36:57.063Z,97887.47
2023-01-17T06:38:59.041Z,97887.94
2023-01-17T06:41:04.169Z,97879.91
2023-01-17T06:43:05.961Z,97889.19
2023-01-17T06:45:08.654Z,97881.78
2023-01-17T06:47:10.229Z,97874.22
2023-01-17T06:49:13.082Z,97881.78
2023-01-17T06:51:14.878Z,97882.88
2023-01-17T06:53:16.635Z,97881.31
2023-01-17T06:55:18.153Z,97889.03
2023-01-17T06:57:19.702Z,97881.63
2023-01-17T06:59:21.208Z,97881.31
2023-01-17T07:01:23.217Z,97883.69
2023-01-17T07:03:26.301Z,97880.81
2023-01-17T07:05:29.190Z,97878.47
2023-01-17T07:07:33.775Z,97876.56
2023-01-17T07:09:35.515Z,97872.00
2023-01-17T07:11:37.121Z,97874.53
2023-01-17T07:13:39.357Z,97876.41
2023-01-17T07:15:40.969Z,97874.38
2023-01-17T07:17:42.546Z,97881.63
2023-01-17T07:19:44.083Z,97878.31
2023-01-17T07:21:47.129Z,97879.91
2023-01-17T07:23:48.876Z,97872.63
2023-01-17T07:25:54.466Z,97870.56
2023-01-17T07:27:56.153Z,97869.63
2023-01-17T07:29:57.813Z,97863.03
2023-01-17T07:31:59.481Z,97861.44
2023-01-17T07:34:01.057Z,97866.16
2023-01-17T07:36:04.662Z,97860.47
2023-01-17T07:38:07.655Z,97858.91
2023-01-17T07:40:10.564Z,97857.81
2023-01-17T07:42:12.139Z,97855.00
2023-01-17T07:44:13.962Z,97850.88
2023-01-17T07:46:15.548Z,97843.19
2023-01-17T07:48:18.141Z,97841.28
2023-01-17T07:50:19.631Z,97842.41
2023-01-17T07:52:21.188Z,97837.34
2023-01-17T07:54:24.090Z,97844.59
2023-01-17T07:56:25.628Z,97839.88
2023-01-17T07:58:27.363Z,97842.22
2023-01-17T08:00:29.263Z,97836.88
2023-01-17T08:02:30.930Z,97844.13
2023-01-17T08:04:32.744Z,97833.44
2023-01-17T08:06:34.281Z,97830.88
2023-01-17T08:08:35.818Z,97833.44
2023-01-17T08:10:38.844Z,97840.84
2023-01-17T08:12:40.361Z,97838.16
2023-01-17T08:14:41.926Z,97840.38
2023-01-17T08:16:43.570Z,97837.69
2023-01-17T08:18:45.153Z,97835.47
2023-01-17T08:20:47.027Z,97830.28
2023-01-17T08:22:48.633Z,97826.50
2023-01-17T08:24:50.206Z,97828.41
2023-01-17T08:26:53.279Z,97822.88
2023-01-17T08:28:55.907Z,97828.41
2023-01-17T08:30:57.501Z,97825.72
2023-01-17T08:32:59.067Z,97824.63
2023-01-17T08:35:00.660Z,97823.19
2023-01-17T08:37:02.251Z,97823.81
2023-01-17T08:39:03.884Z,97823.19
2023-01-17T08:41:05.967Z,97820.66
2023-01-17T08:43:09.567Z,97814.66
2023-01-17T08:45:12.565Z,97814.34
2023-01-17T08:47:14.181Z,97811.19
2023-01-17T08:49:15.699Z,97817.63
2023-01-17T08:51:17.225Z,97818.59
2023-01-17T08:53:22.487Z,97823.94
2023-01-17T08:55:24.089Z,97827.06
2023-01-17T08:57:25.687Z,97821.88
2023-01-17T08:59:29.146Z,97829.44
2023-01-17T09:01:32.426Z,97819.81
2023-01-17T09:03:34.297Z,97831.13
2023-01-17T09:05:35.886Z,97831.13
2023-01-17T09:07:37.439Z,97836.50
2023-01-17T09:09:39.017Z,97838.53
2023-01-17T09:11:40.792Z,97832.72
2023-01-17T09:13:42.626Z,97834.94
2023-01-17T09:15:45.534Z,97836.84
2023-01-17T09:17:47.241Z,97833.50
2023-01-17T09:19:48.921Z,97839.47
2023-01-17T09:21:50.564Z,97845.47
2023-01-17T09:23:52.378Z,97844.19
2023-01-17T09:25:54.145Z,97844.34
2023-01-17T09:27:55.653Z,97851.75
2023-01-17T09:29:57.398Z,97839.72
2023-01-17T09:32:00.368Z,97839.72
2023-01-17T09:34:01.910Z,97838.13
2023-01-17T09:36:04.492Z,97838.47
2023-01-17T09:38:06.030Z,97828.81
2023-01-17T09:40:13.619Z,97831.81
2023-01-17T09:42:25.889Z,97832.78
2023-01-17T09:44:35.327Z,97838.78
2023-01-17T09:46:44.440Z,97850.63
2023-01-17T09:48:49.225Z,97851.75
2023-01-17T09:50:55.034Z,97860.38
2023-01-17T09:53:00.482Z,97861.34
2023-01-17T09:55:02.038Z,97864.31
2023-01-17T09:57:13.537Z,97853.72
2023-01-17T09:59:32.710Z,97852.13
2023-01-17T10:01:45.204Z,97859.84
2023-01-17T10:04:06.779Z,97860.59
2023-01-17T10:06:26.465Z,97864.69
2023-01-17T10:08:40.351Z,97861.72
2023-01-17T10:10:46.220Z,97853.47
2023-01-17T10:12:53.917Z,97852.47
2023-01-17T10:15:16.130Z,97858.91
2023-01-17T10:17:29.441Z,97852.28
2023-01-17T10:19:45.681Z,97851.13
2023-01-17T10:22:26.697Z,97859.00
2023-01-17T10:25:04.464Z,97851.41
2023-01-17T10:27:18.285Z,97854.41
2023-01-17T10:29:21.266Z,97849.22
2023-01-17T10:31:24.287Z,97857.56
2023-01-17T10:33:29.779Z,97850.91
2023-01-17T10:35:36.843Z,97844.09
2023-01-17T10:37:42.329Z,97847.56
2023-01-17T10:39:47.785Z,97848.03
2023-01-17T10:41:54.108Z,97840.78
2023-01-17T10:44:03.978Z,97845.16
2023-01-17T10:46:08.792Z,97845.16
2023-01-17T10:48:15.443Z,97840.56
2023-01-17T10:50:17.248Z,97843.38
2023-01-17T10:52:34.730Z,97838.94
2023-01-17T10:54:55.673Z,97834.94
2023-01-17T10:56:58.515Z,97833.63
2023-01-17T10:59:16.387Z,97826.69
2023-01-17T11:01:21.036Z,97828.78
2023-01-17T11:03:22.821Z,97827.88
2023-01-17T11:05:26.860Z,97827.88
2023-01-17T11:07:30.206Z,97823.63
2023-01-17T11:09:38.508Z,97822.03
2023-01-17T11:11:46.888Z,97824.31
2023-01-17T11:13:50.632Z,97813.56
2023-01-17T11:15:54.322Z,97810.75
2023-01-17T11:18:02.298Z,97803.69
2023-01-17T11:20:23.422Z,97804.16
2023-01-17T11:22:25.153Z,97804.69
2023-01-17T11:24:35.049Z,97797.88
2023-01-17T11:26:44.263Z,97801.03
2023-01-17T11:28:45.965Z,97795.84
2023-01-17T11:30:51.851Z,97787.47
2023-01-17T11:32:55.515Z,97789.50
2023-01-17T11:35:15.294Z,97786.03
2023-01-17T11:37:20.189Z,97781.47
2023-01-17T11:39:25.195Z,97773.41
2023-01-17T11:41:33.943Z,97770.06
2023-01-17T11:43:52.435Z,97766.09
2023-01-17T11:46:02.819Z,97765.22
2023-01-17T11:48:10.533Z,97764.25
2023-01-17T11:50:24.406Z,97753.44
2023-01-17T11:52:33.753Z,97752.28
2023-01-17T11:54:37.146Z,97743.59
2023-01-17T11:56:40.683Z,97745.53
2023-01-17T11:58:42.764Z,97742.31
2023-01-17T12:00:49.112Z,97735.16
2023-01-17T12:03:10.747Z,97730.72
2023-01-17T12:05:40.380Z,97724.56
2023-01-17T12:07:53.423Z,97718.06
2023-01-17T12:10:05.211Z,97716.94
2023-01-17T12:12:16.525Z,97716.84
2023-01-17T12:14:30.061Z,97709.34
2023-01-17T12:16:48.770Z,97706.09
2023-01-17T12:18:55.139Z,97710.91
2023-01-17T12:21:15.165Z,97703.63
2023-01-17T12:23:47.361Z,97703.50
2023-01-17T12:26:05.601Z,97700.25
2023-01-17T12:28:25.075Z,97697.09
2023-01-17T12:30:43.304Z,97695.78
2023-01-17T12:33:03.927Z,97695.88
2023-01-17T12:35:15.076Z,97689.59
2023-01-17T12:37:22.796Z,97690.25
2023-01-17T12:39:30.731Z,97683.00
2023-01-17T12:41:36.545Z,97683.81
2023-01-17T12:43:44.479Z,97676.19
2023-01-17T12:45:49.317Z,97675.97
2023-01-17T12:47:59.625Z,97669.13
2023-01-17T12:50:08.288Z,97664.31
2023-01-17T12:52:19.419Z,97655.94
2023-01-17T12:54:27.243Z,97654.38
2023-01-17T12:56:34.398Z,97651.44
2023-01-17T12:58:40.436Z,97655.38
2023-01-17T13:00:45.332Z,97650.69
2023-01-17T13:02:52.817Z,97650.56
2023-01-17T13:05:00.689Z,97658.63
2023-01-17T13:07:12.453Z,97648.00
2023-01-17T13:09:18.182Z,97649.31
2023-01-17T13:11:24.650Z,97639.03
2023-01-17T13:13:27.892Z,97639.38
2023-01-17T13:15:35.918Z,97642.16
2023-01-17T13:17:46.350Z,97635.91
2023-01-17T13:19:52.574Z,97631.72
2023-01-17T13:21:56.235Z,97625.69
2023-01-17T13:24:15.776Z,97622.97
2023-01-17T13:26:28.199Z,97620.41
2023-01-17T13:28:43.497Z,97610.56
2023-01-17T13:31:12.486Z,97605.22
2023-01-17T13:33:25.579Z,97594.22
2023-01-17T13:35:32.905Z,97605.47
2023-01-17T13:37:52.435Z,97604.25
2023-01-17T13:40:17.947Z,97595.59
2023-01-17T13:42:27.362Z,97596.03
2023-01-17T13:44:29.786Z,97588.13
2023-01-17T13:46:31.522Z,97589.25
2023-01-17T13:48:35.628Z,97597.81
2023-01-17T13:50:50.040Z,97600.97
2023-01-17T13:52:51.592Z,97599.63
2023-01-17T13:54:57.483Z,97608.94
2023-01-17T13:57:33.736Z,97604.34
2023-01-17T13:59:35.294Z,97603.53
2023-01-17T14:01:50.786Z,97594.69
2023-01-17T14:04:05.896Z,97599.16
2023-01-17T14:06:29.312Z,97598.28
2023-01-17T14:08:30.929Z,97607.22
2023-01-17T14:10:38.507Z,97611.22
2023-01-17T14:12:40.113Z,97614.84
2023-01-17T14:14:50.466Z,97608.47
2023-01-17T14:16:52.098Z,97621.00
2023-01-17T14:18:55.055Z,97615.09
2023-01-17T14:21:12.518Z,97624.59
2023-01-17T14:23:35.152Z,97626.25
2023-01-17T14:25:40.301Z,97627.41
2023-01-17T14:27:47.917Z,97624.72
2023-01-17T14:29:54.379Z,97630.97
2023-01-17T14:32:01.025Z,97624.72
2023-01-17T14:34:12.371Z,97620.34
2023-01-17T14:36:24.594Z,97626.44
2023-01-17T14:38:28.089Z,97622.34
2023-01-17T14:40:31.396Z,97620.19
2023-01-17T14:42:33.303Z,97624.34
2023-01-17T14:44:34.960Z,97621.06
2023-01-17T14:46:36.569Z,97629.03
2023-01-17T14:48:40.328Z,97623.66
2023-01-17T14:50:43.132Z,97629.56
2023-01-17T14:52:46.194Z,97629.66
2023-01-17T14:54:48.683Z,97621.88
2023-01-17T14:56:50.330Z,97623.53
2023-01-17T14:59:11.886Z,97627.34
2023-01-17T15:01:15.142Z,97628.56
2023-01-17T15:03:17.023Z,97632.81
2023-01-17T15:05:21.943Z,97631.63
2023-01-17T15:07:23.811Z,97632.28
2023-01-17T15:09:29.723Z,97631.38
2023-01-17T15:11:35.240Z,97630.25
2023-01-17T15:13:44.811Z,97639.56
2023-01-17T15:15:46.962Z,97639.56
2023-01-17T15:17:48.602Z,97641.66
2023-01-17T15:19:55.730Z,97643.34
2023-01-17T15:21:57.473Z,97641.44
2023-01-17T15:24:02.157Z,97636.16
2023-01-17T15:26:07.497Z,97640.72
2023-01-17T15:28:12.288Z,97639.59
2023-01-17T15:30:23.181Z,97636.25
2023-01-17T15:32:26.034Z,97635.09
2023-01-17T15:34:30.197Z,97637.66
2023-01-17T15:36:32.541Z,97639.59
2023-01-17T15:38:39.253Z,97633.81
2023-01-17T15:40:43.052Z,97642.66
2023-01-17T15:42:49.096Z,97634.81
2023-01-17T15:44:54.455Z,97633.25
2023-01-17T15:46:56.460Z,97639.78
2023-01-17T15:49:22.777Z,97642.94
2023-01-17T15:51:32.287Z,97641.25
2023-01-17T15:53:35.886Z,97635.84
2023-01-17T15:55:38.840Z,97632.16
2023-01-17T15:57:40.697Z,97627.84
2023-01-17T15:59:46.230Z,97625.06
2023-01-17T16:01:53.842Z,97620.16
2023-01-17T16:03:55.736Z,97617.13
2023-01-17T16:05:59.184Z,97614.25
2023-01-17T16:08:42.516Z,97616.72
2023-01-17T16:10:44.818Z,97616.41
2023-01-17T16:12:47.485Z,97614.59
2023-01-17T16:15:10.461Z,97612.72
2023-01-17T16:17:17.581Z,97610.78
2023-01-17T16:19:19.093Z,97613.41
2023-01-17T16:21:24.123Z,97615.41
2023-01-17T16:23:25.800Z,97617.41
2023-01-17T16:25:27.423Z,97615.06
2023-01-17T16:27:30.104Z,97617.66
2023-01-17T16:29:31.640Z,97627.69
2023-01-17T16:31:34.692Z,97632.88
2023-01-17T16:33:36.271Z,97622.81
2023-01-17T16:35:37.895Z,97624.84
2023-01-17T16:37:39.434Z,97627.75
2023-01-17T16:39:41.099Z,97633.47
2023-01-17T16:41:42.665Z,97632.78
2023-01-17T16:43:44.247Z,97637.84
2023-01-17T16:45:47.523Z,97627.41
2023-01-17T16:47:51.855Z,97631.34
2023-01-17T16:49:53.626Z,97629.09
2023-01-17T16:51:55.161Z,97634.34
2023-01-17T16:53:56.715Z,97634.69
2023-01-17T16:56:05.140Z,97632.78
2023-01-17T16:58:06.730Z,97637.88
2023-01-17T17:00:10.712Z,97629.13
2023-01-17T17:02:12.438Z,97626.38
2023-01-17T17:04:15.355Z,97622.44
2023-01-17T17:06:16.892Z,97626.63
2023-01-17T17:08:18.620Z,97628.44
2023-01-17T17:10:21.662Z,97636.72
2023-01-17T17:12:23.224Z,97627.13
2023-01-17T17:14:24.799Z,97623.84
2023-01-17T17:16:28.937Z,97624.22
2023-01-17T17:18:30.578Z,97618.75
2023-01-17T17:20:33.482Z,97620.31
2023-01-17T17:22:34.999Z,97620.06
2023-01-17T17:24:36.641Z,97623.03
2023-01-17T17:26:38.228Z,97623.47
2023-01-17T17:28:39.824Z,97621.03
2023-01-17T17:30:41.415Z,97635.94
2023-01-17T17:32:45.835Z,97619.53
2023-01-17T17:34:47.626Z,97620.72
2023-01-17T17:36:51.922Z,97627.25
2023-01-17T17:38:54.430Z,97629.78
2023-01-17T17:40:55.976Z,97631.66
2023-01-17T17:42:57.520Z,97633.34
2023-01-17T17:44:59.334Z,97640.16
2023-01-17T17:47:01.200Z,97638.41
2023-01-17T17:49:03.680Z,97636.31
2023-01-17T17:51:05.767Z,97647.56
2023-01-17T17:53:08.704Z,97645.50
2023-01-17T17:55:10.795Z,97646.81
2023-01-17T17:57:12.326Z,97649.31
2023-01-17T17:59:15.437Z,97656.69
2023-01-17T18:01:17.112Z,97658.00
2023-01-17T18:03:18.740Z,97666.47
2023-01-17T18:05:20.311Z,97666.63
2023-01-17T18:07:21.908Z,97666.63
2023-01-17T18:09:25.036Z,97660.69
2023-01-17T18:11:27.755Z,97671.16
2023-01-17T18:13:30.579Z,97670.25
2023-01-17T18:15:32.166Z,97668.09
2023-01-17T18:17:33.882Z,97665.78
2023-01-17T18:19:35.594Z,97665.91
2023-01-17T18:21:38.936Z,97663.91
2023-01-17T18:23:43.098Z,97666.66
2023-01-17T18:25:46.058Z,97670.53
2023-01-17T18:27:47.608Z,97669.69
2023-01-17T18:29:49.152Z,97671.06
2023-01-17T18:31:51.754Z,97671.78
2023-01-17T18:33:54.072Z,97677.03
2023-01-17T18:35:56.806Z,97676.41
2023-01-17T18:37:59.459Z,97676.16
2023-01-17T18:40:01.057Z,97678.59
2023-01-17T18:42:04.403Z,97679.41
2023-01-17T18:44:06.843Z,97675.25
2023-01-17T18:46:09.880Z,97686.25
2023-01-17T18:48:11.481Z,97692.53
2023-01-17T18:50:13.185Z,97694.44
2023-01-17T18:52:14.710Z,97693.13
2023-01-17T18:54:16.317Z,97692.03
2023-01-17T18:56:20.205Z,97698.97
2023-01-17T18:58:23.941Z,97703.84
2023-01-17T19:00:25.788Z,97695.31
2023-01-17T19:02:27.362Z,97695.44
2023-01-17T19:04:28.968Z,97697.06
2023-01-17T19:06:32.949Z,97696.69
2023-01-17T19:08:35.027Z,97698.06
2023-01-17T19:10:36.648Z,97713.91
2023-01-17T19:12:38.346Z,97707.97
2023-01-17T19:14:41.295Z,97716.38
2023-01-17T19:16:43.610Z,97713.88
2023-01-17T19:18:45.384Z,97713.28
2023-01-17T19:20:46.996Z,97715.06
2023-01-17T19:22:48.630Z,97719.69
2023-01-17T19:24:50.222Z,97716.53
2023-01-17T19:26:51.887Z,97718.44
2023-01-17T19:28:55.193Z,97720.50
2023-01-17T19:31:06.292Z,97721.13
2023-01-17T19:33:07.905Z,97725.50
2023-01-17T19:35:09.858Z,97722.22
2023-01-17T19:37:11.626Z,97726.31
2023-01-17T19:39:13.191Z,97725.97
2023-01-17T19:41:17.035Z,97734.44
2023-01-17T19:43:18.601Z,97731.28
2023-01-17T19:45:20.147Z,97740.69
2023-01-17T19:47:23.067Z,97732.78
2023-01-17T19:49:24.704Z,97737.34
2023-01-17T19:51:26.983Z,97730.38
2023-01-17T19:53:28.593Z,97733.81
2023-01-17T19:55:30.137Z,97730.16
2023-01-17T19:57:31.906Z,97735.34
2023-01-17T19:59:33.480Z,97728.41
2023-01-17T20:01:35.256Z,97727.13
2023-01-17T20:03:38.842Z,97720.47
2023-01-17T20:05:40.445Z,97725.69
2023-01-17T20:07:42.038Z,97720.78
2023-01-17T20:09:43.682Z,97726.75
2023-01-17T20:11:45.258Z,97730.31
2023-01-17T20:13:47.589Z,97729.69
2023-01-17T20:15:52.313Z,97731.25
2023-01-17T20:17:54.068Z,97734.41
2023-01-17T20:19:57.233Z,97732.16
2023-01-17T20:21:58.842Z,97738.19
2023-01-17T20:24:01.092Z,97734.25
2023-01-17T20:26:02.981Z,97746.28
2023-01-17T20:28:04.532Z,97741.25
2023-01-17T20:30:19.225Z,97743.78
2023-01-17T20:32:21.852Z,97746.44
2023-01-17T20:34:23.506Z,97746.63
2023-01-17T20:36:27.020Z,97744.56
2023-01-17T20:38:29.807Z,97749.63
2023-01-17T20:40:31.399Z,97750.41
2023-01-17T20:42:35.935Z,97755.28
2023-01-17T20:44:37.517Z,97755.28
2023-01-17T20:46:40.833Z,97748.22
2023-01-17T20:48:46.794Z,97748.69
2023-01-17T20:50:48.335Z,97752.94
2023-01-17T20:52:51.241Z,97759.41
2023-01-17T20:54:52.842Z,97753.25
2023-01-17T20:56:54.425Z,97749.28
2023-01-17T20:58:56.090Z,97762.69
2023-01-17T21:00:58.667Z,97751.38
2023-01-17T21:03:00.303Z,97762.34
2023-01-17T21:05:01.877Z,97761.59
2023-01-17T21:07:03.781Z,97754.13
2023-01-17T21:09:07.494Z,97762.97
2023-01-17T21:11:11.194Z,97763.47
2023-01-17T21:13:12.787Z,97759.03
2023-01-17T21:15:14.463Z,97761.38
2023-01-17T21:17:16.097Z,97756.50
2023-01-17T21:19:17.679Z,97757.13
2023-01-17T21:21:21.619Z,97770.22
2023-01-17T21:23:23.232Z,97758.38
2023-01-17T21:25:26.167Z,97759.34
2023-01-17T21:27:27.743Z,97764.41
2023-01-17T21:29:29.492Z,97771.34
2023-01-17T21:31:31.390Z,97770.53
2023-01-17T21:33:33.038Z,97765.50
2023-01-17T21:35:34.616Z,97762.03
2023-01-17T21:37:36.318Z,97761.72
2023-01-17T21:39:38.244Z,97762.81
2023-01-17T21:41:43.096Z,97760.91
2023-01-17T21:43:44.698Z,97766.28
2023-01-17T21:45:46.434Z,97770.66
2023-01-17T21:47:48.046Z,97765.00
2023-01-17T21:49:49.584Z,97765.47
2023-01-17T21:51:51.357Z,97771.44
2023-01-17T21:53:52.958Z,97773.63
2023-01-17T21:55:59.863Z,97777.09
2023-01-17T21:58:02.788Z,97767.78
2023-01-17T22:00:05.665Z,97777.81
2023-01-17T22:02:07.302Z,97770.75
2023-01-17T22:04:08.926Z,97768.06
2023-01-17T22:06:10.620Z,97769.38
2023-01-17T22:08:14.907Z,97776.50
2023-01-17T22:10:17.168Z,97776.19
2023-01-17T22:12:19.059Z,97777.09
2023-01-17T22:14:21.980Z,97785.88
2023-01-17T22:16:25.234Z,97784.91
2023-01-17T22:18:28.111Z,97781.00
2023-01-17T22:20:29.723Z,97778.34
2023-01-17T22:22:32.286Z,97782.72
2023-01-17T22:24:33.921Z,97785.13
2023-01-17T22:26:35.501Z,97780.41
2023-01-17T22:28:38.153Z,97784.50
2023-01-17T22:30:41.064Z,97785.75
2023-01-17T22:32:42.699Z,97785.75
2023-01-17T22:34:44.547Z,97780.19
2023-01-17T22:36:46.150Z,97774.53
2023-01-17T22:38:47.787Z,97783.50
2023-01-17T22:40:49.359Z,97778.28
2023-01-17T22:42:51.333Z,97782.19
2023-01-17T22:44:52.942Z,97778.69
2023-01-17T22:46:56.295Z,97782.13
2023-01-17T22:48:58.467Z,97781.91
2023-01-17T22:51:02.366Z,97777.31
2023-01-17T22:53:04.105Z,97776.63
2023-01-17T22:55:06.203Z,97775.03
2023-01-17T22:57:07.781Z,97773.56
2023-01-17T22:59:09.285Z,97777.69
2023-01-17T23:01:12.873Z,97777.50
2023-01-17T23:03:15.896Z,97775.94
2023-01-17T23:05:17.507Z,97774.50
2023-01-17T23:07:19.024Z,97766.47
2023-01-17T23:09:20.699Z,97774.97
2023-01-17T23:11:24.999Z,97766.13
2023-01-17T23:13:26.614Z,97771.50
2023-01-17T23:15:28.325Z,97773.56
2023-01-17T23:17:29.977Z,97772.47
2023-01-17T23:19:38.107Z,97763.97
2023-01-17T23:21:39.748Z,97768.56
2023-01-17T23:23:41.240Z,97764.44
2023-01-17T23:25:42.847Z,97762.34
2023-01-17T23:27:46.072Z,97759.03
2023-01-17T23:29:47.560Z,97762.81
2023-01-17T23:31:49.050Z,97761.59
2023-01-17T23:33:50.615Z,97764.41
2023-01-17T23:35:53.489Z,97758.06
2023-01-17T23:37:55.631Z,97763.41
2023-01-17T23:39:57.230Z,97767.72
2023-01-17T23:41:58.765Z,97762.84
2023-01-17T23:44:00.332Z,97763.97
2023-01-17T23:46:02.618Z,97772.94
2023-01-17T23:48:05.757Z,97765.25
2023-01-17T23:50:08.540Z,97766.50
2023-01-17T23:52:11.474Z,97763.19
2023-01-17T23:54:13.131Z,97762.09
2023-01-17T23:56:18.000Z,97764.94
2023-01-17T23:58:21.603Z,97766.84
